Impacts METAR Board
IDs:

KMIA - Miami Intl, FL, US

Updated at: 2100 UTC 20 Jun 2019
Potential Impact None Slight Moderate High
Time 20/09Z 20/10Z 20/11Z 20/12Z 20/13Z 20/14Z 20/15Z 20/16Z 20/17Z 20/18Z 20/19Z 20/20Z 20/21Z
Temp81 81 82 83 86 88 89 92 92 91 91 91 91
Dewpt76 75 75 76 76 75 74 74 75 76 75 75 75
Altim30.00 30.00 30.02 30.04 30.07 30.08 30.08 30.07 30.05 30.04 30.03 30.02 30.02
VIS8 10 10 10 10 10 10 10 10 10 10 10 10
CIG-- -- -- 30 18 18 27 -- -- -- -- -- --
CoverFEWFEWFEWBKNBKNBKNBKNSCTSCTFEWFEWFEWFEW
FltCatVFRVFRVFRMVFRMVFRMVFRMVFRVFRVFRVFRVFRVFRVFR
WX--------------------------
WDir1501501501701601601700140120150170140
WSpd3 4 4 3 5 6 8 4 9 11 8 8 8
WGst-- -- -- -- -- -- -- -- -- -- -- -- --
Raw hourly METARs
KMIA 200853Z 15003KT 8SM FEW014 27/24 A3000 RMK AO2 SLP157 T02720244 56010
KMIA 200953Z 15004KT 10SM FEW018 27/24 A3000 RMK AO2 SLP159 T02720239
KMIA 201053Z 15004KT 10SM FEW018 FEW250 28/24 A3002 RMK AO2 SLP164 T02780239
KMIA 201153Z 17003KT 10SM SCT016 BKN030 BKN250 28/24 A3004 RMK AO2 SLP173 T02830244 10289 20272 53016
KMIA 201253Z 16005KT 10SM BKN018 BKN030 BKN250 30/24 A3007 RMK AO2 SLP184 T03000244
KMIA 201353Z 16006KT 10SM BKN018 BKN030 BKN250 31/24 A3008 RMK AO2 SLP185 T03110239
KMIA 201453Z 17008KT 10SM BKN027 BKN040 BKN250 32/23 A3008 RMK AO2 SLP184 T03170233 51011
KMIA 201553Z VRB04KT 10SM SCT027 SCT038 SCT250 33/23 A3007 RMK AO2 SLP182 T03330233
KMIA 201653Z 14009KT 110V170 10SM SCT030 33/24 A3005 RMK AO2 SLP177 T03330239
KMIA 201753Z 12011KT 10SM FEW034 33/24 A3004 RMK AO2 SLP173 T03280244 10333 20283 58011
KMIA 201853Z 15008KT 10SM FEW037 33/24 A3003 RMK AO2 SLP170 T03280239
KMIA 201953Z 17008KT 10SM FEW035 FEW200 33/24 A3002 RMK AO2 SLP167 T03280239
KMIA 202053Z 14008KT 110V170 10SM FEW035 FEW250 33/24 A3002 RMK AO2 SLP167 T03280239 55006



Page loaded:  21:25 UTC  |   02:25 PM Pacific  |   03:25 PM Mountain  |   04:25 PM Central  |   05:25 PM Eastern

 

ADVISORIES

FORECASTS

FORECASTS

OBSERVATIONS

USER TOOLS

ABOUT US